Time;durP1;ratioP1;P1;durP2;ratioP2;P2;SDS_P1;SDS_P2;PMS_P1;PMS_P2;Temp;Humidity;BMP_temperature;BMP_pressure;BME280_temperature;BME280_humidity;BME280_pressure;Samples;Min_cycle;Max_cycle;Signal;HPM_P1;HPM_P2
2022/12/14 00:00:38;;;;;;;;;30.00;25.75;;;;;4.49;45.45;99492.28;5051691;28;69993;-53
2022/12/14 00:03:04;;;;;;;;;38.00;30.25;;;;;4.48;45.42;99491.44;5074692;28;45540;-54
2022/12/14 00:05:29;;;;;;;;;38.75;31.75;;;;;4.47;45.60;99484.56;5071252;27;45406;-53
2022/12/14 00:07:54;;;;;;;;;33.00;24.50;;;;;4.50;45.54;99484.50;5076774;27;67089;-52
2022/12/14 00:10:20;;;;;;;;;36.75;30.25;;;;;4.54;45.55;99480.94;5075553;27;67029;-51
2022/12/14 00:12:45;;;;;;;;;35.25;28.00;;;;;4.56;45.70;99478.31;5071220;27;56798;-53
2022/12/14 00:15:11;;;;;;;;;32.00;28.25;;;;;4.56;45.53;99484.34;5072104;27;59404;-54
2022/12/14 00:17:36;;;;;;;;;39.00;28.00;;;;;4.59;45.43;99485.19;5072616;28;45434;-53
2022/12/14 00:20:01;;;;;;;;;38.75;27.75;;;;;4.61;45.30;99488.59;5091781;27;46105;-54
2022/12/14 00:22:27;;;;;;;;;33.75;28.00;;;;;4.57;45.30;99486.06;5076129;27;45268;-54
2022/12/14 00:24:52;;;;;;;;;45.50;32.75;;;;;4.55;45.59;99485.25;5074210;27;45294;-52
2022/12/14 00:27:18;;;;;;;;;33.75;31.75;;;;;4.53;45.96;99487.03;5071383;27;65610;-54
2022/12/14 00:29:43;;;;;;;;;36.50;28.00;;;;;4.54;45.89;99477.50;5068551;27;63614;-53
2022/12/14 00:32:09;;;;;;;;;33.75;29.75;;;;;4.52;45.54;99474.09;5075945;27;45415;-54
2022/12/14 00:34:34;;;;;;;;;42.00;30.75;;;;;4.47;45.58;99471.59;5068330;27;61065;-54
2022/12/14 00:36:59;;;;;;;;;46.50;32.75;;;;;4.48;45.66;99468.13;5067332;28;45454;-52
2022/12/14 00:39:25;;;;;;;;;41.00;32.50;;;;;4.45;45.72;99465.59;5073989;28;62927;-52
2022/12/14 00:41:50;;;;;;;;;45.25;31.50;;;;;4.41;45.73;99463.97;5071851;28;61361;-53
2022/12/14 00:44:15;;;;;;;;;32.00;28.50;;;;;4.40;45.81;99464.00;5065297;27;59874;-54
2022/12/14 00:46:41;;;;;;;;;44.25;32.25;;;;;4.38;45.89;99461.47;5067980;28;57258;-49
2022/12/14 00:49:06;;;;;;;;;34.75;28.25;;;;;4.35;46.05;99457.19;5072125;27;68095;-53
2022/12/14 00:51:31;;;;;;;;;36.75;29.75;;;;;4.37;45.86;99454.56;5069369;28;45377;-53
2022/12/14 00:53:57;;;;;;;;;45.50;32.50;;;;;4.38;46.09;99451.09;5065314;27;49408;-53
2022/12/14 00:56:22;;;;;;;;;35.75;29.00;;;;;4.35;46.14;99454.59;5063982;27;63840;-53
2022/12/14 00:58:52;;;;;;;;;44.00;33.75;;;;;4.32;46.04;99451.22;5075219;28;46433;-54
2022/12/14 01:01:17;;;;;;;;;40.75;30.75;;;;;4.28;46.06;99458.19;5073989;28;45333;-53
2022/12/14 01:03:43;;;;;;;;;48.25;31.75;;;;;4.24;46.14;99442.78;5089068;27;45408;-54
2022/12/14 01:06:17;;;;;;;;;41.75;32.50;;;;;4.26;46.14;99448.78;5066710;27;45511;-52
2022/12/14 01:08:42;;;;;;;;;36.50;30.00;;;;;4.18;46.05;99444.63;5069637;27;46293;-54
2022/12/14 01:11:09;;;;;;;;;37.00;33.75;;;;;4.25;46.14;99455.69;5075514;27;45359;-54
2022/12/14 01:13:35;;;;;;;;;45.00;35.75;;;;;4.28;46.31;99459.94;5074062;28;45489;-53
2022/12/14 01:16:02;;;;;;;;;42.25;30.00;;;;;4.24;46.27;99466.09;5069242;28;45727;-54
2022/12/14 01:18:28;;;;;;;;;38.25;32.75;;;;;4.20;46.23;99467.88;5069898;27;45475;-55
2022/12/14 01:20:53;;;;;;;;;43.00;34.25;;;;;4.20;46.39;99480.84;5075952;28;63929;-52
2022/12/14 01:23:18;;;;;;;;;49.00;31.75;;;;;4.14;46.60;99492.19;5075731;28;45356;-52
2022/12/14 01:25:44;;;;;;;;;35.00;29.25;;;;;4.13;46.32;99490.47;5074320;28;64172;-52
2022/12/14 01:28:09;;;;;;;;;38.00;31.00;;;;;4.15;46.52;99493.88;5074230;28;50028;-54
2022/12/14 01:30:38;;;;;;;;;36.25;30.25;;;;;4.13;46.59;99495.66;5073953;27;45426;-55
2022/12/14 01:33:03;;;;;;;;;42.25;31.25;;;;;4.12;46.51;99498.25;5073373;27;45216;-53
2022/12/14 01:35:28;;;;;;;;;42.50;32.00;;;;;4.11;46.41;99489.66;5077322;28;61293;-54
2022/12/14 01:37:54;;;;;;;;;52.67;35.00;;;;;4.09;46.87;99482.78;5075932;28;69186;-55
2022/12/14 01:40:19;;;;;;;;;46.00;32.00;;;;;4.11;46.77;99492.25;5069948;28;59516;-54
2022/12/14 01:42:45;;;;;;;;;46.75;33.00;;;;;4.13;46.75;99490.47;5065685;28;45285;-53
2022/12/14 01:45:17;;;;;;;;;30.75;23.25;;;;;4.13;46.53;99480.09;5071131;28;45195;-54
2022/12/14 01:47:51;;;;;;;;;46.25;32.75;;;;;4.13;46.67;99497.38;5072317;28;45470;-53
2022/12/14 01:50:36;;;;;;;;;36.00;26.25;;;;;4.11;46.82;99499.16;5077192;27;46424;-54
2022/12/14 01:53:06;;;;;;;;;33.75;27.75;;;;;4.06;46.82;99499.25;5076747;28;45655;-53
2022/12/14 01:55:37;;;;;;;;;40.00;22.00;;;;;4.04;46.99;99501.00;5077056;27;45430;-52
2022/12/14 01:58:18;;;;;;;;;37.75;27.25;;;;;4.04;47.50;99498.44;5082552;27;46241;-53
2022/12/14 02:00:43;;;;;;;;;37.00;31.25;;;;;4.07;47.69;99492.31;5077068;27;45516;-54
2022/12/14 02:03:13;;;;;;;;;39.25;31.50;;;;;4.09;47.60;99482.78;5074599;27;47049;-53
2022/12/14 02:05:42;;;;;;;;;35.50;27.25;;;;;4.11;48.27;99493.97;5074363;27;46420;-53
2022/12/14 02:08:08;;;;;;;;;35.75;29.50;;;;;4.06;47.91;99494.06;5086715;27;47477;-52
2022/12/14 02:10:34;;;;;;;;;42.00;30.50;;;;;4.04;48.38;99493.25;5078338;27;45438;-54
2022/12/14 02:13:04;;;;;;;;;40.00;27.00;;;;;4.03;48.28;99488.09;5089198;27;45498;-52
2022/12/14 02:15:30;;;;;;;;;47.00;32.00;;;;;3.99;48.84;99477.81;5058699;28;45405;-53
2022/12/14 02:17:56;;;;;;;;;28.50;23.00;;;;;4.00;48.86;99468.28;5077258;28;47348;-55
2022/12/14 02:20:27;;;;;;;;;29.00;20.50;;;;;3.98;49.08;99464.88;5072987;28;58031;-50
2022/12/14 02:23:34;;;;;;;;;35.25;25.75;;;;;3.93;48.72;99453.78;5069353;28;45566;-54
2022/12/14 02:26:11;;;;;;;;;36.50;27.00;;;;;3.96;49.38;99435.59;5037486;28;46069;-51
2022/12/14 02:29:14;;;;;;;;;26.50;25.25;;;;;3.96;49.40;99441.63;5071627;28;47451;-53
2022/12/14 02:32:21;;;;;;;;;36.75;28.00;;;;;3.99;49.24;99415.69;5069210;28;45219;-54
2022/12/14 02:35:13;;;;;;;;;40.50;30.75;;;;;4.01;49.78;99409.63;5071666;27;45406;-52
2022/12/14 02:37:46;;;;;;;;;38.75;30.25;;;;;3.95;50.58;99408.88;5072299;27;45513;-53
2022/12/14 02:40:36;;;;;;;;;33.00;27.00;;;;;3.92;50.15;99414.09;5070073;28;46359;-53
2022/12/14 02:43:10;;;;;;;;;40.50;30.00;;;;;3.94;50.29;99420.09;5072934;28;45917;-55
2022/12/14 02:45:44;;;;;;;;;37.50;27.50;;;;;3.95;50.65;99420.97;5091871;27;45465;-53
2022/12/14 02:48:18;;;;;;;;;37.75;30.75;;;;;3.89;51.65;99414.16;5073662;28;45478;-52
2022/12/14 02:51:05;;;;;;;;;35.00;27.00;;;;;3.86;50.69;99413.38;5076795;28;45638;-54
2022/12/14 02:53:52;;;;;;;;;38.25;30.25;;;;;3.86;51.17;99400.44;5078747;27;45275;-53
2022/12/14 02:56:22;;;;;;;;;36.75;27.75;;;;;3.85;51.48;99394.41;5075116;27;45375;-52
2022/12/14 02:58:49;;;;;;;;;37.75;30.00;;;;;3.83;51.29;99385.84;5069653;28;45303;-53
2022/12/14 03:01:18;;;;;;;;;37.00;28.75;;;;;3.83;51.35;99378.06;5074537;28;46181;-51
2022/12/14 03:03:44;;;;;;;;;38.75;28.00;;;;;3.83;51.57;99374.66;5059413;28;46058;-51
2022/12/14 03:06:15;;;;;;;;;35.75;28.50;;;;;3.78;51.33;99378.16;5074791;28;45475;-53
2022/12/14 03:08:43;;;;;;;;;37.50;30.25;;;;;3.83;51.75;99380.66;5094050;27;45553;-55
2022/12/14 03:11:11;;;;;;;;;27.50;26.50;;;;;3.78;51.64;99378.16;5076729;28;45370;-53
2022/12/14 03:13:41;;;;;;;;;35.75;27.50;;;;;3.82;51.82;99391.03;5072583;28;46108;-54
2022/12/14 03:16:15;;;;;;;;;35.50;28.50;;;;;3.85;51.81;99389.25;5086540;27;45353;-55
2022/12/14 03:18:49;;;;;;;;;42.00;29.50;;;;;3.83;52.02;99378.06;5072264;28;45395;-53
2022/12/14 03:21:19;;;;;;;;;34.00;27.75;;;;;3.80;51.80;99371.22;5089193;27;46386;-54
2022/12/14 03:23:47;;;;;;;;;39.25;29.00;;;;;3.86;51.99;99390.09;5070967;28;45834;-55
2022/12/14 03:26:17;;;;;;;;;27.00;21.50;;;;;3.88;52.16;99385.72;5072359;27;45453;-51
2022/12/14 03:28:49;;;;;;;;;43.50;31.75;;;;;3.84;52.49;99387.53;5064878;28;45653;-54
2022/12/14 03:31:20;;;;;;;;;43.50;33.75;;;;;3.86;52.19;99385.78;5067162;28;46696;-54
2022/12/14 03:33:47;;;;;;;;;43.75;30.00;;;;;3.86;52.86;99377.16;5071109;28;45319;-55
2022/12/14 03:36:28;;;;;;;;;36.50;32.00;;;;;3.82;52.35;99378.94;5076808;28;45444;-55
2022/12/14 03:38:56;;;;;;;;;33.75;29.25;;;;;3.87;52.09;99377.13;5091114;27;45611;-57
2022/12/14 03:41:29;;;;;;;;;47.75;33.25;;;;;3.87;52.77;99374.53;5067073;27;47085;-55
2022/12/14 03:44:07;;;;;;;;;40.25;29.00;;;;;3.85;52.33;99370.28;5068060;27;45969;-54
2022/12/14 03:46:50;;;;;;;;;49.75;30.75;;;;;3.84;52.56;99377.16;5070485;28;45453;-49
2022/12/14 03:49:23;;;;;;;;;48.00;27.50;;;;;3.89;52.46;99371.91;5073533;28;45398;-51
2022/12/14 03:52:10;;;;;;;;;28.50;19.25;;;;;3.89;52.50;99361.56;5069666;28;46335;-55
2022/12/14 03:54:55;;;;;;;;;39.75;27.50;;;;;3.87;52.48;99352.97;5065841;28;45793;-52
2022/12/14 03:57:46;;;;;;;;;44.75;33.00;;;;;3.85;52.81;99347.00;5062094;28;45756;-51
2022/12/14 04:00:17;;;;;;;;;43.75;32.50;;;;;3.79;53.16;99350.56;5072189;28;45350;-52
2022/12/14 04:03:05;;;;;;;;;37.25;26.75;;;;;3.75;53.81;99348.91;5069819;28;45411;-55
2022/12/14 04:06:19;;;;;;;;;38.25;28.50;;;;;3.71;53.40;99352.47;5069836;27;45261;-54
2022/12/14 04:09:07;;;;;;;;;35.25;29.00;;;;;3.70;53.18;99355.91;5068509;27;45498;-52
2022/12/14 04:20:23;;;;;;;;;51.50;36.25;;;;;3.61;53.86;99331.97;5087284;27;45566;-54
2022/12/14 04:22:55;;;;;;;;;39.00;28.25;;;;;3.61;53.82;99333.69;5066502;28;45692;-54
2022/12/14 04:31:09;;;;;;;;;43.25;29.00;;;;;3.64;53.74;99318.09;5076255;28;45314;-52
2022/12/14 04:33:46;;;;;;;;;34.25;27.00;;;;;3.62;53.94;99319.88;5058178;28;45545;-53
2022/12/14 04:36:27;;;;;;;;;48.25;30.50;;;;;3.60;53.78;99324.25;5076530;28;45424;-52
2022/12/14 04:38:57;;;;;;;;;39.75;29.00;;;;;3.62;53.84;99330.22;5090861;27;45474;-50
2022/12/14 04:41:26;;;;;;;;;31.50;21.25;;;;;3.61;54.52;99331.97;5075499;27;45530;-52
2022/12/14 04:43:54;;;;;;;;;33.00;26.25;;;;;3.63;54.01;99342.28;5073149;28;45449;-53
2022/12/14 04:46:24;;;;;;;;;38.75;29.00;;;;;3.63;53.87;99347.47;5074448;28;45382;-52
2022/12/14 04:48:54;;;;;;;;;37.75;25.75;;;;;3.67;53.69;99348.25;5076823;28;45227;-52
2022/12/14 04:51:45;;;;;;;;;38.75;28.00;;;;;3.68;53.80;99337.84;5080926;27;45474;-53
2022/12/14 04:54:34;;;;;;;;;38.25;25.25;;;;;3.69;53.90;99339.56;5075861;28;45267;-53
2022/12/14 04:57:05;;;;;;;;;40.25;27.50;;;;;3.68;53.41;99355.09;5064175;28;45456;-53
2022/12/14 04:59:31;;;;;;;;;38.50;30.50;;;;;3.71;54.03;99357.63;5074389;28;45446;-52
2022/12/14 05:02:09;;;;;;;;;32.00;24.50;;;;;3.70;53.74;99354.22;5090438;27;45567;-52
2022/12/14 05:04:55;;;;;;;;;31.50;26.00;;;;;3.68;53.53;99361.13;5077277;28;45472;-52
2022/12/14 05:07:26;;;;;;;;;36.50;29.00;;;;;3.69;53.63;99362.84;5072940;28;46346;-54
2022/12/14 05:09:54;;;;;;;;;30.50;27.25;;;;;3.73;53.27;99353.28;5092607;27;45579;-54
2022/12/14 05:12:26;;;;;;;;;36.25;29.00;;;;;3.71;53.45;99357.63;5072153;27;45362;-52
2022/12/14 05:15:02;;;;;;;;;39.75;28.25;;;;;3.70;53.89;99349.03;5077372;28;45451;-54
2022/12/14 05:17:27;;;;;;;;;29.25;26.25;;;;;3.70;53.28;99345.56;5070163;27;46500;-53
2022/12/14 05:19:53;;;;;;;;;35.25;29.00;;;;;3.75;53.24;99334.25;5084177;27;55889;-51
2022/12/14 05:22:19;;;;;;;;;38.50;31.00;;;;;3.76;53.41;99337.69;5080117;28;45354;-53
2022/12/14 05:24:45;;;;;;;;;33.00;26.75;;;;;3.78;53.42;99341.94;5082053;27;45507;-50
2022/12/14 05:27:10;;;;;;;;;35.25;24.50;;;;;3.78;53.21;99335.91;5074007;27;45897;-53
2022/12/14 05:29:36;;;;;;;;;32.25;26.25;;;;;3.78;53.37;99339.34;5079317;28;45434;-52
2022/12/14 05:32:02;;;;;;;;;35.25;23.75;;;;;3.76;53.40;99332.53;5078046;27;45355;-54
2022/12/14 05:34:27;;;;;;;;;29.00;25.75;;;;;3.74;53.28;99332.53;5070319;27;45281;-55
2022/12/14 05:36:53;;;;;;;;;34.75;26.50;;;;;3.74;53.31;99329.97;5077078;28;47080;-53
2022/12/14 05:39:18;;;;;;;;;39.00;22.50;;;;;3.73;53.44;99330.84;5075757;27;45472;-54
2022/12/14 05:41:44;;;;;;;;;36.50;25.25;;;;;3.72;53.25;99336.03;5071875;28;54105;-55
2022/12/14 05:44:09;;;;;;;;;46.25;28.50;;;;;3.75;53.39;99342.03;5072029;27;45588;-54
2022/12/14 05:46:35;;;;;;;;;27.25;25.75;;;;;3.74;53.58;99340.31;5088883;27;47082;-51
2022/12/14 05:49:01;;;;;;;;;30.25;25.25;;;;;3.74;53.91;99342.91;5075499;27;45422;-52
2022/12/14 05:51:26;;;;;;;;;33.25;20.00;;;;;3.75;53.49;99351.50;5077885;28;45391;-52
2022/12/14 05:53:51;;;;;;;;;38.00;29.25;;;;;3.74;53.47;99362.75;5076727;27;47268;-51
2022/12/14 05:56:18;;;;;;;;;34.50;25.25;;;;;3.72;53.50;99357.59;5072990;27;46512;-55
2022/12/14 05:58:48;;;;;;;;;33.25;25.50;;;;;3.75;53.55;99367.91;5075772;28;45466;-55
2022/12/14 06:01:14;;;;;;;;;35.75;28.50;;;;;3.75;53.48;99377.38;5076271;28;45371;-53
2022/12/14 06:03:39;;;;;;;;;33.75;25.25;;;;;3.78;53.47;99377.31;5078909;27;45286;-53
2022/12/14 06:06:07;;;;;;;;;33.00;25.50;;;;;3.78;53.83;99373.00;5089627;27;46526;-53
2022/12/14 06:08:35;;;;;;;;;39.50;27.00;;;;;3.76;53.53;99369.59;5068910;28;45450;-54
2022/12/14 06:11:15;;;;;;;;;21.25;15.25;;;;;3.73;53.47;99363.63;5077432;27;45329;-54
2022/12/14 06:13:41;;;;;;;;;36.25;26.75;;;;;3.77;53.65;99375.59;5072622;28;45563;-52
2022/12/14 06:16:14;;;;;;;;;27.50;24.75;;;;;3.77;53.63;99375.59;5076418;28;46057;-55
2022/12/14 06:18:48;;;;;;;;;15.75;8.00;;;;;3.72;53.62;99378.31;5076085;28;45726;-54
2022/12/14 06:21:15;;;;;;;;;29.25;25.75;;;;;3.70;53.74;99374.91;5078561;27;45476;-50
2022/12/14 06:23:41;;;;;;;;;33.75;31.00;;;;;3.72;53.42;99375.72;5070588;27;45241;-50
2022/12/14 06:26:07;;;;;;;;;36.75;28.50;;;;;3.80;53.77;99384.16;5072049;27;46246;-51
2022/12/14 06:28:33;;;;;;;;;39.75;30.25;;;;;3.82;53.62;99372.94;5075613;28;45635;-52
2022/12/14 06:30:58;;;;;;;;;30.50;26.75;;;;;3.83;53.61;99380.66;5076018;28;45562;-54
2022/12/14 06:33:24;;;;;;;;;38.50;31.75;;;;;3.86;53.43;99366.78;5071990;27;45372;-55
2022/12/14 06:35:49;;;;;;;;;36.25;25.75;;;;;3.86;53.43;99375.44;5071242;28;68187;-52
2022/12/14 06:38:16;;;;;;;;;36.50;30.75;;;;;3.80;53.66;99370.38;5072623;27;61677;-51
2022/12/14 06:40:42;;;;;;;;;37.00;26.50;;;;;3.79;53.78;99363.50;5065423;28;46475;-51
2022/12/14 06:43:07;;;;;;;;;40.75;26.50;;;;;3.80;54.12;99368.63;5062142;28;45393;-49
2022/12/14 06:45:33;;;;;;;;;35.00;26.75;;;;;3.83;53.69;99367.72;5071730;27;46851;-50
2022/12/14 06:47:58;;;;;;;;;34.50;28.50;;;;;3.83;54.06;99372.91;5073808;27;45316;-49
2022/12/14 06:50:26;;;;;;;;;39.75;30.75;;;;;3.83;53.98;99377.22;5071508;28;45498;-52
2022/12/14 06:52:52;;;;;;;;;36.25;25.00;;;;;3.82;53.70;99373.78;5074134;27;45635;-52
2022/12/14 06:55:17;;;;;;;;;46.00;29.50;;;;;3.83;54.13;99375.50;5069073;27;45783;-53
2022/12/14 06:57:43;;;;;;;;;40.00;29.75;;;;;3.83;54.53;99377.22;5073471;27;45358;-53
2022/12/14 07:00:12;;;;;;;;;43.25;32.75;;;;;3.78;54.57;99377.31;5082258;27;45325;-53
2022/12/14 07:02:38;;;;;;;;;33.25;25.50;;;;;3.69;54.75;99373.19;5062148;27;45294;-53
2022/12/14 07:05:04;;;;;;;;;40.25;26.75;;;;;3.64;54.57;99387.09;5078208;28;46232;-50
2022/12/14 07:07:34;;;;;;;;;31.00;21.25;;;;;3.64;54.90;99392.28;5067009;27;45774;-53
2022/12/14 07:10:00;;;;;;;;;40.50;29.75;;;;;3.60;55.18;99399.25;5085032;27;45381;-49
2022/12/14 07:12:26;;;;;;;;;30.00;24.50;;;;;3.59;55.01;99403.59;5083603;27;45477;-53
2022/12/14 07:14:53;;;;;;;;;40.00;29.75;;;;;3.59;54.97;99420.81;5073068;27;46500;-52
2022/12/14 07:17:18;;;;;;;;;38.25;29.00;;;;;3.56;55.57;99423.44;5082366;27;45647;-53
2022/12/14 07:19:44;;;;;;;;;42.75;28.25;;;;;3.51;55.67;99426.16;5069661;27;45454;-54
2022/12/14 07:22:09;;;;;;;;;31.00;24.00;;;;;3.51;55.90;99435.66;5060406;28;45865;-55
2022/12/14 07:24:35;;;;;;;;;43.25;27.00;;;;;3.49;55.38;99432.22;5090492;27;45963;-53
2022/12/14 07:27:00;;;;;;;;;39.75;30.50;;;;;3.47;55.53;99434.84;5071906;27;45682;-54
2022/12/14 07:29:26;;;;;;;;;27.00;25.50;;;;;3.46;55.56;99433.13;5075365;27;45410;-57
2022/12/14 07:31:51;;;;;;;;;30.50;24.75;;;;;3.48;55.75;99441.72;5088743;27;45634;-54
2022/12/14 07:34:17;;;;;;;;;44.50;30.50;;;;;3.49;55.39;99443.44;5071575;27;46256;-55
2022/12/14 07:36:42;;;;;;;;;36.00;26.75;;;;;3.50;55.59;99439.94;5074360;27;45382;-54
2022/12/14 07:39:13;;;;;;;;;34.75;27.00;;;;;3.53;55.69;99450.25;5079701;27;45370;-55
2022/12/14 07:41:38;;;;;;;;;38.75;25.25;;;;;3.52;55.60;99458.03;5071472;27;45618;-55
2022/12/14 07:44:04;;;;;;;;;41.00;26.00;;;;;3.50;55.97;99459.78;5069545;27;65524;-57
2022/12/14 07:46:30;;;;;;;;;39.50;29.50;;;;;3.44;55.61;99458.19;5073749;27;45206;-55
2022/12/14 07:48:56;;;;;;;;;34.25;25.50;;;;;3.40;55.55;99459.97;5072925;27;45571;-57
2022/12/14 07:51:25;;;;;;;;;41.00;28.50;;;;;3.42;55.45;99459.94;5089822;27;45639;-55
2022/12/14 07:53:50;;;;;;;;;39.25;32.50;;;;;3.44;56.14;99460.78;5066326;28;45651;-53
2022/12/14 07:56:21;;;;;;;;;36.50;27.50;;;;;3.41;55.88;99458.22;5079096;27;45414;-60
2022/12/14 07:58:47;;;;;;;;;36.75;27.00;;;;;3.36;55.82;99465.22;5073791;27;45532;-55
2022/12/14 08:01:21;;;;;;;;;33.25;26.75;;;;;3.31;55.85;99460.16;5075942;27;45310;-57
2022/12/14 08:04:00;;;;;;;;;36.50;29.00;;;;;3.27;56.18;99458.47;5072340;28;45565;-54
2022/12/14 08:06:27;;;;;;;;;29.50;26.50;;;;;3.27;55.71;99458.47;5064776;28;45411;-54
2022/12/14 08:08:54;;;;;;;;;39.00;27.25;;;;;3.33;56.10;99460.09;5076804;27;45246;-56
2022/12/14 08:11:23;;;;;;;;;47.25;29.25;;;;;3.36;55.77;99465.22;5063731;27;45740;-56
2022/12/14 08:14:03;;;;;;;;;38.00;32.00;;;;;3.38;55.69;99469.50;5067367;27;45442;-57
2022/12/14 08:16:29;;;;;;;;;45.00;29.75;;;;;3.42;55.85;99473.72;5075258;28;45710;-57
2022/12/14 08:18:56;;;;;;;;;43.25;32.00;;;;;3.45;55.42;99472.81;5070947;28;45300;-56
2022/12/14 08:21:22;;;;;;;;;38.25;26.00;;;;;3.48;55.76;99472.75;5064485;27;45248;-57
2022/12/14 08:23:48;;;;;;;;;38.25;28.00;;;;;3.48;55.63;99472.75;5074636;28;45484;-55
2022/12/14 08:26:14;;;;;;;;;38.50;24.25;;;;;3.48;55.68;99469.31;5078598;28;45452;-55
2022/12/14 08:28:39;;;;;;;;;38.75;25.50;;;;;3.43;55.43;99471.97;5075225;27;45347;-55
2022/12/14 08:31:10;;;;;;;;;39.25;30.25;;;;;3.37;55.50;99474.69;5081131;27;63134;-55
2022/12/14 08:33:37;;;;;;;;;35.75;29.50;;;;;3.39;55.67;99467.75;5066863;27;45239;-57
2022/12/14 08:36:17;;;;;;;;;41.75;27.25;;;;;3.38;55.40;99473.78;5071910;28;45389;-54
2022/12/14 08:38:42;;;;;;;;;39.25;27.25;;;;;3.39;55.33;99475.50;5073385;28;45268;-54
2022/12/14 08:41:10;;;;;;;;;41.75;27.25;;;;;3.35;55.20;99479.03;5087217;27;45493;-56
2022/12/14 08:43:36;;;;;;;;;42.25;30.75;;;;;3.34;55.14;99479.91;5072296;28;45405;-56
2022/12/14 08:46:02;;;;;;;;;39.75;26.75;;;;;3.40;55.33;99485.00;5061395;28;45680;-56
2022/12/14 08:48:28;;;;;;;;;35.00;29.50;;;;;3.48;55.38;99475.34;5075677;27;45284;-57
2022/12/14 08:50:54;;;;;;;;;30.75;25.25;;;;;3.54;55.14;99485.59;5070238;27;45465;-56
2022/12/14 08:53:19;;;;;;;;;35.75;28.75;;;;;3.61;55.05;99487.19;5075887;27;67203;-57
2022/12/14 08:55:45;;;;;;;;;30.50;25.50;;;;;3.63;55.13;99487.16;5079209;27;45362;-54
2022/12/14 08:58:11;;;;;;;;;38.75;33.50;;;;;3.66;54.92;99489.66;5070730;27;61580;-56
2022/12/14 09:00:37;;;;;;;;;47.50;33.50;;;;;3.63;54.64;99500.09;5075426;27;45413;-57
2022/12/14 09:03:04;;;;;;;;;37.00;26.00;;;;;3.61;54.93;99496.66;5078958;27;46246;-56
2022/12/14 09:05:29;;;;;;;;;36.50;27.25;;;;;3.60;55.22;99502.72;5074253;27;45348;-57
2022/12/14 09:07:55;;;;;;;;;37.50;32.50;;;;;3.58;54.96;99504.50;5078760;27;56581;-56
2022/12/14 09:10:20;;;;;;;;;38.50;27.75;;;;;3.60;55.14;99505.31;5066192;27;45538;-57
2022/12/14 09:12:46;;;;;;;;;40.50;27.50;;;;;3.61;54.67;99496.66;5067034;27;45356;-55
2022/12/14 09:15:11;;;;;;;;;45.00;36.00;;;;;3.62;54.93;99498.38;5068199;28;52821;-55
2022/12/14 09:17:36;;;;;;;;;36.25;27.50;;;;;3.67;54.91;99501.72;5069815;27;45568;-53
2022/12/14 09:20:03;;;;;;;;;41.00;33.75;;;;;3.69;54.72;99512.06;5068665;28;45231;-52
2022/12/14 09:22:28;;;;;;;;;45.25;34.25;;;;;3.69;54.80;99519.81;5078647;27;45710;-52
2022/12/14 09:24:54;;;;;;;;;38.33;32.33;;;;;3.73;54.82;99522.28;5073759;27;67234;-55
2022/12/14 09:27:21;;;;;;;;;42.50;28.75;;;;;3.74;54.32;99530.94;5074620;27;57931;-54
2022/12/14 09:29:46;;;;;;;;;43.25;31.00;;;;;3.75;54.71;99535.22;5068401;27;45586;-55
2022/12/14 09:32:12;;;;;;;;;43.25;33.25;;;;;3.76;54.33;99545.53;5071963;27;46186;-54
2022/12/14 09:34:37;;;;;;;;;41.00;29.00;;;;;3.75;54.18;99546.44;5078358;27;46111;-57
2022/12/14 09:37:03;;;;;;;;;42.75;31.00;;;;;3.75;54.02;99550.72;5064834;27;45353;-58
2022/12/14 09:39:30;;;;;;;;;43.75;31.00;;;;;3.74;53.78;99542.13;5073366;27;45288;-55
2022/12/14 09:42:12;;;;;;;;;44.75;32.75;;;;;3.82;53.94;99552.31;5080725;27;45359;-56
2022/12/14 09:45:02;;;;;;;;;37.75;32.00;;;;;3.90;53.97;99550.47;5058280;28;46949;-55
2022/12/14 09:47:37;;;;;;;;;50.00;37.25;;;;;4.00;54.12;99558.88;5073554;27;45438;-54
2022/12/14 09:50:11;;;;;;;;;48.75;37.00;;;;;4.03;53.93;99550.22;5091112;27;45568;-54
2022/12/14 09:52:53;;;;;;;;;39.75;31.00;;;;;4.01;53.71;99557.16;5073385;27;45311;-53
2022/12/14 09:55:26;;;;;;;;;44.50;32.00;;;;;3.99;53.38;99559.78;5074663;27;45279;-53
2022/12/14 09:57:59;;;;;;;;;42.00;31.25;;;;;3.97;53.20;99548.63;5076027;28;46097;-55
2022/12/14 10:00:24;;;;;;;;;46.50;35.75;;;;;3.97;53.49;99548.63;5080386;28;45453;-55
2022/12/14 10:03:02;;;;;;;;;43.50;35.25;;;;;4.03;53.49;99552.81;5097675;27;46365;-56
2022/12/14 10:05:53;;;;;;;;;38.00;28.50;;;;;4.05;52.97;99541.53;5068103;27;45460;-53
2022/12/14 10:08:42;;;;;;;;;39.50;32.50;;;;;4.06;52.98;99543.25;5079074;27;45453;-55
2022/12/14 10:11:22;;;;;;;;;57.50;42.50;;;;;4.09;52.63;99547.50;5074539;28;45569;-51
2022/12/14 10:13:55;;;;;;;;;46.75;37.00;;;;;4.12;52.92;99557.81;5071781;27;45316;-56
2022/12/14 10:16:47;;;;;;;;;47.75;35.25;;;;;4.15;53.00;99548.25;5075998;27;45254;-54
2022/12/14 10:19:31;;;;;;;;;45.25;35.25;;;;;4.23;52.73;99555.00;5069776;28;45293;-52
2022/12/14 10:21:59;;;;;;;;;44.00;37.00;;;;;4.26;52.53;99553.19;5071653;28;45585;-55
2022/12/14 10:24:31;;;;;;;;;52.00;37.50;;;;;4.29;52.22;99557.47;5079775;27;46405;-55
2022/12/14 10:26:57;;;;;;;;;47.25;38.50;;;;;4.29;52.03;99553.16;5069280;27;45342;-55
2022/12/14 10:29:34;;;;;;;;;43.00;36.25;;;;;4.29;51.70;99553.16;5079507;27;63718;-55
2022/12/14 10:32:15;;;;;;;;;52.50;38.00;;;;;4.26;51.58;99549.75;5080153;27;45454;-54
2022/12/14 10:34:42;;;;;;;;;53.00;37.25;;;;;4.23;51.99;99545.47;5086615;27;45389;-55
2022/12/14 10:37:19;;;;;;;;;49.00;38.75;;;;;4.25;52.10;99559.28;5076012;27;45286;-55
2022/12/14 10:40:15;;;;;;;;;55.50;40.00;;;;;4.33;52.55;99551.34;5069221;27;45345;-56
2022/12/14 10:43:03;;;;;;;;;43.50;35.75;;;;;4.38;52.21;99554.69;5088184;27;45434;-53
2022/12/14 10:45:50;;;;;;;;;42.25;36.00;;;;;4.40;51.88;99550.34;5088399;27;45380;-56
2022/12/14 10:48:39;;;;;;;;;53.75;38.50;;;;;4.35;51.86;99549.56;5080269;28;45798;-56
2022/12/14 10:51:30;;;;;;;;;40.75;31.50;;;;;4.33;51.83;99557.38;5071839;27;45493;-55
2022/12/14 10:54:20;;;;;;;;;57.50;39.50;;;;;4.30;51.91;99561.75;5090399;27;46315;-55
2022/12/14 10:56:47;;;;;;;;;45.00;36.75;;;;;4.30;51.94;99561.75;5077181;28;45682;-55
2022/12/14 10:59:19;;;;;;;;;61.25;42.75;;;;;4.32;51.75;99566.03;5072620;28;45760;-55
2022/12/14 11:01:47;;;;;;;;;58.50;39.00;;;;;4.30;51.95;99554.00;5076170;28;45406;-57
2022/12/14 11:04:32;;;;;;;;;57.75;41.50;;;;;4.35;52.20;99565.09;5076141;27;45378;-56
2022/12/14 11:07:01;;;;;;;;;54.25;39.50;;;;;4.34;52.27;99564.28;5091619;27;45398;-53
2022/12/14 11:09:27;;;;;;;;;52.25;37.25;;;;;4.37;51.91;99569.41;5079550;28;45453;-54
2022/12/14 11:12:03;;;;;;;;;53.50;38.75;;;;;4.42;51.95;99577.06;5079545;27;45551;-54
2022/12/14 11:14:29;;;;;;;;;53.00;37.00;;;;;4.46;51.74;99577.84;5079575;27;45261;-56
2022/12/14 11:16:54;;;;;;;;;48.50;37.50;;;;;4.46;51.67;99573.53;5074039;27;45962;-55
2022/12/14 11:19:22;;;;;;;;;54.75;39.00;;;;;4.47;51.66;99572.63;5071734;27;45213;-55
2022/12/14 11:21:48;;;;;;;;;50.00;39.25;;;;;4.48;51.44;99568.28;5077697;27;45334;-56
2022/12/14 11:24:25;;;;;;;;;50.50;36.75;;;;;4.49;51.82;99576.03;5079367;28;45531;-53
2022/12/14 11:26:52;;;;;;;;;47.50;36.00;;;;;4.53;51.38;99572.53;5078816;27;48278;-56
2022/12/14 11:29:22;;;;;;;;;46.25;37.50;;;;;4.51;51.29;99570.81;5071120;27;45473;-55
2022/12/14 11:31:51;;;;;;;;;56.75;37.00;;;;;4.47;51.29;99566.59;5074956;27;45421;-55
2022/12/14 11:34:21;;;;;;;;;48.00;37.25;;;;;4.44;50.99;99558.88;5077691;28;45492;-55
2022/12/14 11:36:47;;;;;;;;;57.00;40.25;;;;;4.43;51.54;99570.16;5072456;28;45405;-57
2022/12/14 11:39:13;;;;;;;;;44.00;35.00;;;;;4.42;51.64;99573.63;5078973;28;45373;-56
2022/12/14 11:42:13;;;;;;;;;49.00;38.00;;;;;4.42;51.26;99586.56;5080244;28;45395;-55
2022/12/14 11:44:38;;;;;;;;;42.00;39.00;;;;;4.40;51.33;99590.94;5070176;27;45246;-54
2022/12/14 11:47:07;;;;;;;;;52.75;39.00;;;;;4.46;51.64;99588.19;5091801;27;63834;-56
2022/12/14 11:49:34;;;;;;;;;54.00;38.00;;;;;4.49;51.21;99586.41;5073095;27;45417;-55
2022/12/14 11:52:10;;;;;;;;;48.50;33.75;;;;;4.51;50.88;99583.78;5073367;27;45301;-54
2022/12/14 11:54:45;;;;;;;;;47.00;33.00;;;;;4.49;50.62;99585.56;5074616;27;45464;-56